sensor_id;sensor_type;location;lat;lon;timestamp;pressure;altitude;pressure_sealevel;temperature
79053;BMP280;68451;49.510;6.026;2023-08-21T00:02:22;98582.47;;;19.16
79053;BMP280;68451;49.510;6.026;2023-08-21T00:04:47;98709.22;;;20.00
79053;BMP280;68451;49.510;6.026;2023-08-21T00:07:13;98714.53;;;20.00
79053;BMP280;68451;49.510;6.026;2023-08-21T00:09:38;98694.94;;;19.91
79053;BMP280;68451;49.510;6.026;2023-08-21T00:12:06;98718.28;;;20.04
79053;BMP280;68451;49.510;6.026;2023-08-21T00:14:31;98523.94;;;18.82
79053;BMP280;68451;49.510;6.026;2023-08-21T00:16:57;98698.63;;;20.00
79053;BMP280;68451;49.510;6.026;2023-08-21T00:19:22;98719.34;;;20.13
79053;BMP280;68451;49.510;6.026;2023-08-21T00:21:48;98633.69;;;19.52
79053;BMP280;68451;49.510;6.026;2023-08-21T00:24:13;98671.84;;;19.66
79053;BMP280;68451;49.510;6.026;2023-08-21T00:26:39;98468.00;;;18.43
79053;BMP280;68451;49.510;6.026;2023-08-21T00:29:04;98696.25;;;19.88
79053;BMP280;68451;49.510;6.026;2023-08-21T00:31:30;98719.31;;;20.03
79053;BMP280;68451;49.510;6.026;2023-08-21T00:33:55;98671.59;;;19.62
79053;BMP280;68451;49.510;6.026;2023-08-21T00:36:21;98556.72;;;18.76
79053;BMP280;68451;49.510;6.026;2023-08-21T00:38:46;98652.69;;;19.34
79053;BMP280;68451;49.510;6.026;2023-08-21T00:41:12;98680.03;;;19.44
79053;BMP280;68451;49.510;6.026;2023-08-21T00:43:38;98704.41;;;19.56
79053;BMP280;68451;49.510;6.026;2023-08-21T00:46:04;98698.03;;;19.52
79053;BMP280;68451;49.510;6.026;2023-08-21T00:48:30;98711.84;;;19.54
79053;BMP280;68451;49.510;6.026;2023-08-21T00:50:55;98707.03;;;19.51
79053;BMP280;68451;49.510;6.026;2023-08-21T00:53:21;98705.19;;;19.52
79053;BMP280;68451;49.510;6.026;2023-08-21T00:55:46;98683.66;;;19.33
79053;BMP280;68451;49.510;6.026;2023-08-21T00:58:12;98707.31;;;19.50
79053;BMP280;68451;49.510;6.026;2023-08-21T01:00:39;98617.38;;;18.98
79053;BMP280;68451;49.510;6.026;2023-08-21T01:03:05;98674.63;;;19.24
79053;BMP280;68451;49.510;6.026;2023-08-21T01:05:31;98560.03;;;18.51
79053;BMP280;68451;49.510;6.026;2023-08-21T01:08:08;98680.97;;;19.18
79053;BMP280;68451;49.510;6.026;2023-08-21T01:10:45;98680.16;;;19.17
79053;BMP280;68451;49.510;6.026;2023-08-21T01:13:23;98635.88;;;18.88
79053;BMP280;68451;49.510;6.026;2023-08-21T01:15:54;98679.06;;;19.03
79053;BMP280;68451;49.510;6.026;2023-08-21T01:18:21;98679.06;;;19.03
79053;BMP280;68451;49.510;6.026;2023-08-21T01:20:47;98705.63;;;19.23
79053;BMP280;68451;49.510;6.026;2023-08-21T01:23:30;98438.59;;;17.62
79053;BMP280;68451;49.510;6.026;2023-08-21T01:25:56;98514.13;;;18.10
79053;BMP280;68451;49.510;6.026;2023-08-21T01:28:22;98662.94;;;19.10
79053;BMP280;68451;49.510;6.026;2023-08-21T01:30:49;98686.78;;;19.15
79053;BMP280;68451;49.510;6.026;2023-08-21T01:33:16;98722.06;;;19.36
79053;BMP280;68451;49.510;6.026;2023-08-21T01:35:42;98657.53;;;18.85
79053;BMP280;68451;49.510;6.026;2023-08-21T01:38:08;98675.28;;;18.89
79053;BMP280;68451;49.510;6.026;2023-08-21T01:40:34;98671.25;;;18.76
79053;BMP280;68451;49.510;6.026;2023-08-21T01:42:59;98698.59;;;18.97
79053;BMP280;68451;49.510;6.026;2023-08-21T01:45:25;98713.47;;;19.03
79053;BMP280;68451;49.510;6.026;2023-08-21T01:47:51;98695.97;;;18.97
79053;BMP280;68451;49.510;6.026;2023-08-21T01:50:16;98736.00;;;19.16
79053;BMP280;68451;49.510;6.026;2023-08-21T01:52:42;98715.31;;;19.03
79053;BMP280;68451;49.510;6.026;2023-08-21T01:55:08;98688.22;;;18.81
79053;BMP280;68451;49.510;6.026;2023-08-21T01:57:34;98712.59;;;18.93
79053;BMP280;68451;49.510;6.026;2023-08-21T01:59:59;98718.16;;;18.91
79053;BMP280;68451;49.510;6.026;2023-08-21T02:02:25;98667.47;;;18.62
79053;BMP280;68451;49.510;6.026;2023-08-21T02:04:50;98703.03;;;18.82
79053;BMP280;68451;49.510;6.026;2023-08-21T02:07:16;98658.94;;;18.50
79053;BMP280;68451;49.510;6.026;2023-08-21T02:09:41;98728.03;;;19.06
79053;BMP280;68451;49.510;6.026;2023-08-21T02:12:07;98725.41;;;19.06
79053;BMP280;68451;49.510;6.026;2023-08-21T02:14:32;98728.03;;;19.11
79053;BMP280;68451;49.510;6.026;2023-08-21T02:16:58;98636.81;;;18.66
79053;BMP280;68451;49.510;6.026;2023-08-21T02:19:23;98726.25;;;19.21
79053;BMP280;68451;49.510;6.026;2023-08-21T02:21:49;98704.78;;;19.18
79053;BMP280;68451;49.510;6.026;2023-08-21T02:24:14;98548.22;;;18.17
79053;BMP280;68451;49.510;6.026;2023-08-21T02:26:40;98673.16;;;18.86
79053;BMP280;68451;49.510;6.026;2023-08-21T02:29:07;98540.00;;;18.03
79053;BMP280;68451;49.510;6.026;2023-08-21T02:31:33;98699.69;;;18.96
79053;BMP280;68451;49.510;6.026;2023-08-21T02:33:58;98613.44;;;18.43
79053;BMP280;68451;49.510;6.026;2023-08-21T02:36:23;98667.00;;;18.65
79053;BMP280;68451;49.510;6.026;2023-08-21T02:38:49;98700.94;;;18.84
79053;BMP280;68451;49.510;6.026;2023-08-21T02:41:15;98688.97;;;18.76
79053;BMP280;68451;49.510;6.026;2023-08-21T02:43:40;98703.31;;;18.85
79053;BMP280;68451;49.510;6.026;2023-08-21T02:46:06;98576.44;;;18.01
79053;BMP280;68451;49.510;6.026;2023-08-21T02:48:31;98724.75;;;18.89
79053;BMP280;68451;49.510;6.026;2023-08-21T02:50:57;98676.97;;;18.58
79053;BMP280;68451;49.510;6.026;2023-08-21T02:53:22;98684.16;;;18.63
79053;BMP280;68451;49.510;6.026;2023-08-21T02:55:48;98730.34;;;18.97
79053;BMP280;68451;49.510;6.026;2023-08-21T02:58:14;98683.91;;;18.64
79053;BMP280;68451;49.510;6.026;2023-08-21T03:00:40;98698.75;;;18.75
79053;BMP280;68451;49.510;6.026;2023-08-21T03:03:05;98669.03;;;18.58
79053;BMP280;68451;49.510;6.026;2023-08-21T03:05:30;98684.44;;;18.61
79053;BMP280;68451;49.510;6.026;2023-08-21T03:07:56;98729.03;;;18.95
79053;BMP280;68451;49.510;6.026;2023-08-21T03:10:22;98520.34;;;17.57
79053;BMP280;68451;49.510;6.026;2023-08-21T03:12:48;98686.16;;;18.51
79053;BMP280;68451;49.510;6.026;2023-08-21T03:15:14;98721.78;;;18.75
79053;BMP280;68451;49.510;6.026;2023-08-21T03:17:39;98731.06;;;18.77
79053;BMP280;68451;49.510;6.026;2023-08-21T03:20:06;98702.91;;;18.56
79053;BMP280;68451;49.510;6.026;2023-08-21T03:22:32;98734.78;;;18.82
79053;BMP280;68451;49.510;6.026;2023-08-21T03:24:58;98706.38;;;18.67
79053;BMP280;68451;49.510;6.026;2023-08-21T03:27:24;98678.19;;;18.46
79053;BMP280;68451;49.510;6.026;2023-08-21T03:29:49;98728.97;;;18.85
79053;BMP280;68451;49.510;6.026;2023-08-21T03:32:18;98723.19;;;18.88
79053;BMP280;68451;49.510;6.026;2023-08-21T03:34:44;98685.97;;;18.57
79053;BMP280;68451;49.510;6.026;2023-08-21T03:37:10;98626.41;;;18.08
79053;BMP280;68451;49.510;6.026;2023-08-21T03:39:35;98575.75;;;17.79
79053;BMP280;68451;49.510;6.026;2023-08-21T03:42:01;98737.94;;;18.78
79053;BMP280;68451;49.510;6.026;2023-08-21T03:44:27;98657.22;;;18.29
79053;BMP280;68451;49.510;6.026;2023-08-21T03:46:52;98692.56;;;18.55
79053;BMP280;68451;49.510;6.026;2023-08-21T03:49:18;98651.13;;;18.28
79053;BMP280;68451;49.510;6.026;2023-08-21T03:51:43;98663.66;;;18.43
79053;BMP280;68451;49.510;6.026;2023-08-21T03:54:09;98713.31;;;18.73
79053;BMP280;68451;49.510;6.026;2023-08-21T03:56:36;98586.19;;;18.01
79053;BMP280;68451;49.510;6.026;2023-08-21T03:59:01;98692.09;;;18.63
79053;BMP280;68451;49.510;6.026;2023-08-21T04:01:27;98686.00;;;18.62
79053;BMP280;68451;49.510;6.026;2023-08-21T04:03:52;98705.13;;;18.74
79053;BMP280;68451;49.510;6.026;2023-08-21T04:06:18;98690.19;;;18.58
79053;BMP280;68451;49.510;6.026;2023-08-21T04:08:43;98701.09;;;18.67
79053;BMP280;68451;49.510;6.026;2023-08-21T04:11:09;98704.78;;;18.66
79053;BMP280;68451;49.510;6.026;2023-08-21T04:13:34;98712.75;;;18.71
79053;BMP280;68451;49.510;6.026;2023-08-21T04:16:00;98607.09;;;18.02
79053;BMP280;68451;49.510;6.026;2023-08-21T04:18:25;98742.16;;;18.79
79053;BMP280;68451;49.510;6.026;2023-08-21T04:20:51;98689.56;;;18.46
79053;BMP280;68451;49.510;6.026;2023-08-21T04:23:16;98729.38;;;18.66
79053;BMP280;68451;49.510;6.026;2023-08-21T04:25:42;98747.44;;;18.74
79053;BMP280;68451;49.510;6.026;2023-08-21T04:28:08;98526.25;;;17.37
79053;BMP280;68451;49.510;6.026;2023-08-21T04:30:34;98576.44;;;17.69
79053;BMP280;68451;49.510;6.026;2023-08-21T04:33:00;98676.25;;;18.31
79053;BMP280;68451;49.510;6.026;2023-08-21T04:35:25;98745.34;;;18.76
79053;BMP280;68451;49.510;6.026;2023-08-21T04:37:51;98713.47;;;18.56
79053;BMP280;68451;49.510;6.026;2023-08-21T04:40:16;98722.53;;;18.70
79053;BMP280;68451;49.510;6.026;2023-08-21T04:42:45;98701.78;;;18.52
79053;BMP280;68451;49.510;6.026;2023-08-21T04:45:10;98722.22;;;18.62
79053;BMP280;68451;49.510;6.026;2023-08-21T04:47:36;98632.75;;;18.07
79053;BMP280;68451;49.510;6.026;2023-08-21T04:50:01;98723.59;;;18.69
79053;BMP280;68451;49.510;6.026;2023-08-21T04:52:27;98708.22;;;18.61
79053;BMP280;68451;49.510;6.026;2023-08-21T04:54:53;98632.03;;;18.16
79053;BMP280;68451;49.510;6.026;2023-08-21T04:57:18;98517.72;;;17.57
79053;BMP280;68451;49.510;6.026;2023-08-21T04:59:46;98751.31;;;19.04
79053;BMP280;68451;49.510;6.026;2023-08-21T05:04:54;98748.44;;;19.15
79053;BMP280;68451;49.510;6.026;2023-08-21T05:07:19;98716.59;;;18.95
79053;BMP280;68451;49.510;6.026;2023-08-21T05:09:45;98703.59;;;18.89
79053;BMP280;68451;49.510;6.026;2023-08-21T05:12:10;98685.59;;;18.86
79053;BMP280;68451;49.510;6.026;2023-08-21T05:14:36;98619.81;;;18.52
79053;BMP280;68451;49.510;6.026;2023-08-21T05:17:03;98730.50;;;19.28
79053;BMP280;68451;49.510;6.026;2023-08-21T05:19:28;98752.03;;;19.46
79053;BMP280;68451;49.510;6.026;2023-08-21T05:21:54;98725.25;;;19.43
79053;BMP280;68451;49.510;6.026;2023-08-21T05:24:19;98725.31;;;19.53
79053;BMP280;68451;49.510;6.026;2023-08-21T05:26:45;98645.22;;;19.10
79053;BMP280;68451;49.510;6.026;2023-08-21T05:29:10;98754.28;;;19.90
79053;BMP280;68451;49.510;6.026;2023-08-21T05:31:35;98619.00;;;19.09
79053;BMP280;68451;49.510;6.026;2023-08-21T05:34:01;98773.91;;;20.14
79053;BMP280;68451;49.510;6.026;2023-08-21T05:36:26;98738.41;;;20.10
79053;BMP280;68451;49.510;6.026;2023-08-21T05:38:52;98733.63;;;20.22
79053;BMP280;68451;49.510;6.026;2023-08-21T05:41:18;98768.41;;;20.61
79053;BMP280;68451;49.510;6.026;2023-08-21T05:43:43;98760.69;;;20.70
79053;BMP280;68451;49.510;6.026;2023-08-21T05:46:11;98758.53;;;20.82
79053;BMP280;68451;49.510;6.026;2023-08-21T05:48:36;98757.97;;;21.00
79053;BMP280;68451;49.510;6.026;2023-08-21T05:51:02;98723.94;;;21.07
79053;BMP280;68451;49.510;6.026;2023-08-21T05:53:28;98739.50;;;21.44
79053;BMP280;68451;49.510;6.026;2023-08-21T05:55:54;98775.84;;;22.08
79053;BMP280;68451;49.510;6.026;2023-08-21T05:58:19;98764.72;;;22.40
79053;BMP280;68451;49.510;6.026;2023-08-21T06:00:46;98647.38;;;22.12
79053;BMP280;68451;49.510;6.026;2023-08-21T06:03:12;98730.97;;;22.93
79053;BMP280;68451;49.510;6.026;2023-08-21T06:05:37;98745.75;;;23.70
79053;BMP280;68451;49.510;6.026;2023-08-21T06:08:03;98740.16;;;24.41
79053;BMP280;68451;49.510;6.026;2023-08-21T06:10:28;98662.44;;;24.70
79053;BMP280;68451;49.510;6.026;2023-08-21T06:12:53;98679.66;;;25.68
79053;BMP280;68451;49.510;6.026;2023-08-21T06:15:19;98728.47;;;26.94
79053;BMP280;68451;49.510;6.026;2023-08-21T06:17:45;98659.66;;;27.37
79053;BMP280;68451;49.510;6.026;2023-08-21T06:20:10;98732.84;;;28.58
79053;BMP280;68451;49.510;6.026;2023-08-21T06:22:37;98744.22;;;29.40
79053;BMP280;68451;49.510;6.026;2023-08-21T06:25:03;98760.53;;;30.26
79053;BMP280;68451;49.510;6.026;2023-08-21T06:27:29;98731.59;;;30.92
79053;BMP280;68451;49.510;6.026;2023-08-21T06:29:54;98762.38;;;31.40
79053;BMP280;68451;49.510;6.026;2023-08-21T06:32:20;98755.63;;;31.34
79053;BMP280;68451;49.510;6.026;2023-08-21T06:34:45;98755.44;;;31.15
79053;BMP280;68451;49.510;6.026;2023-08-21T06:37:11;98714.34;;;30.15
79053;BMP280;68451;49.510;6.026;2023-08-21T06:39:38;98762.06;;;30.48
79053;BMP280;68451;49.510;6.026;2023-08-21T06:42:04;98753.00;;;30.77
79053;BMP280;68451;49.510;6.026;2023-08-21T06:44:29;98768.69;;;31.56
79053;BMP280;68451;49.510;6.026;2023-08-21T06:46:54;98738.63;;;31.97
79053;BMP280;68451;49.510;6.026;2023-08-21T06:49:20;98761.75;;;32.23
79053;BMP280;68451;49.510;6.026;2023-08-21T06:51:45;98758.84;;;32.59
79053;BMP280;68451;49.510;6.026;2023-08-21T06:54:11;98752.59;;;33.02
79053;BMP280;68451;49.510;6.026;2023-08-21T06:56:36;98756.72;;;32.80
79053;BMP280;68451;49.510;6.026;2023-08-21T06:59:02;98742.81;;;31.95
79053;BMP280;68451;49.510;6.026;2023-08-21T07:01:30;98740.06;;;32.07
79053;BMP280;68451;49.510;6.026;2023-08-21T07:03:55;98681.75;;;32.06
79053;BMP280;68451;49.510;6.026;2023-08-21T07:06:21;98757.75;;;33.07
79053;BMP280;68451;49.510;6.026;2023-08-21T07:08:46;98771.28;;;33.73
79053;BMP280;68451;49.510;6.026;2023-08-21T07:11:12;98680.47;;;33.60
79053;BMP280;68451;49.510;6.026;2023-08-21T07:13:38;98755.69;;;34.47
79053;BMP280;68451;49.510;6.026;2023-08-21T07:16:04;98758.97;;;35.02
79053;BMP280;68451;49.510;6.026;2023-08-21T07:18:32;98753.50;;;35.51
79053;BMP280;68451;49.510;6.026;2023-08-21T07:20:58;98729.19;;;35.88
79053;BMP280;68451;49.510;6.026;2023-08-21T07:23:24;98742.47;;;36.30
79053;BMP280;68451;49.510;6.026;2023-08-21T07:25:49;98751.84;;;36.73
79053;BMP280;68451;49.510;6.026;2023-08-21T07:28:15;98769.63;;;37.07
79053;BMP280;68451;49.510;6.026;2023-08-21T07:30:40;98758.28;;;37.02
79053;BMP280;68451;49.510;6.026;2023-08-21T07:33:06;98724.97;;;37.15
79053;BMP280;68451;49.510;6.026;2023-08-21T07:35:32;98723.09;;;37.30
79053;BMP280;68451;49.510;6.026;2023-08-21T07:37:58;98743.88;;;37.56
79053;BMP280;68451;49.510;6.026;2023-08-21T07:40:23;98721.31;;;37.55
79053;BMP280;68451;49.510;6.026;2023-08-21T07:42:49;98755.69;;;37.85
79053;BMP280;68451;49.510;6.026;2023-08-21T07:45:14;98751.50;;;38.05
79053;BMP280;68451;49.510;6.026;2023-08-21T07:47:40;98673.88;;;37.67
79053;BMP280;68451;49.510;6.026;2023-08-21T07:50:07;98754.31;;;38.33
79053;BMP280;68451;49.510;6.026;2023-08-21T07:52:36;98728.59;;;38.34
79053;BMP280;68451;49.510;6.026;2023-08-21T07:55:02;98764.50;;;38.75
79053;BMP280;68451;49.510;6.026;2023-08-21T07:57:28;98739.53;;;38.48
79053;BMP280;68451;49.510;6.026;2023-08-21T07:59:55;98743.84;;;38.60
79053;BMP280;68451;49.510;6.026;2023-08-21T08:02:20;98751.25;;;38.81
79053;BMP280;68451;49.510;6.026;2023-08-21T08:04:46;98746.94;;;39.12
79053;BMP280;68451;49.510;6.026;2023-08-21T08:07:12;98775.41;;;39.39
79053;BMP280;68451;49.510;6.026;2023-08-21T08:09:38;98758.66;;;39.23
79053;BMP280;68451;49.510;6.026;2023-08-21T08:12:05;98736.00;;;39.26
79053;BMP280;68451;49.510;6.026;2023-08-21T08:14:30;98722.38;;;39.19
79053;BMP280;68451;49.510;6.026;2023-08-21T08:16:56;98731.31;;;39.33
79053;BMP280;68451;49.510;6.026;2023-08-21T08:19:21;98743.00;;;39.45
79053;BMP280;68451;49.510;6.026;2023-08-21T08:21:47;98742.19;;;39.51
79053;BMP280;68451;49.510;6.026;2023-08-21T08:24:12;98704.81;;;39.30
79053;BMP280;68451;49.510;6.026;2023-08-21T08:26:38;98748.00;;;39.67
79053;BMP280;68451;49.510;6.026;2023-08-21T08:29:03;98738.97;;;39.85
79053;BMP280;68451;49.510;6.026;2023-08-21T08:31:30;98758.00;;;40.06
79053;BMP280;68451;49.510;6.026;2023-08-21T08:33:56;98637.75;;;38.97
79053;BMP280;68451;49.510;6.026;2023-08-21T08:36:22;98659.63;;;38.83
79053;BMP280;68451;49.510;6.026;2023-08-21T08:38:48;98750.41;;;39.55
79053;BMP280;68451;49.510;6.026;2023-08-21T08:41:36;98707.50;;;39.37
79053;BMP280;68451;49.510;6.026;2023-08-21T08:44:04;98741.84;;;39.49
79053;BMP280;68451;49.510;6.026;2023-08-21T08:46:30;98732.53;;;39.08
79053;BMP280;68451;49.510;6.026;2023-08-21T08:48:56;98756.72;;;38.99
79053;BMP280;68451;49.510;6.026;2023-08-21T08:51:24;98681.03;;;38.32
79053;BMP280;68451;49.510;6.026;2023-08-21T08:53:50;98709.09;;;38.36
79053;BMP280;68451;49.510;6.026;2023-08-21T08:56:16;98730.19;;;38.53
79053;BMP280;68451;49.510;6.026;2023-08-21T08:58:41;98745.78;;;38.56
79053;BMP280;68451;49.510;6.026;2023-08-21T09:01:08;98711.88;;;38.43
79053;BMP280;68451;49.510;6.026;2023-08-21T09:03:36;98731.00;;;38.92
79053;BMP280;68451;49.510;6.026;2023-08-21T09:06:03;98746.94;;;39.12
79053;BMP280;68451;49.510;6.026;2023-08-21T09:08:29;98723.53;;;39.25
79053;BMP280;68451;49.510;6.026;2023-08-21T09:10:54;98730.09;;;39.56
79053;BMP280;68451;49.510;6.026;2023-08-21T09:13:20;98746.78;;;39.90
79053;BMP280;68451;49.510;6.026;2023-08-21T09:15:47;98736.28;;;39.81
79053;BMP280;68451;49.510;6.026;2023-08-21T09:18:14;98697.34;;;39.45
79053;BMP280;68451;49.510;6.026;2023-08-21T09:20:41;98663.09;;;39.12
79053;BMP280;68451;49.510;6.026;2023-08-21T09:23:07;98730.53;;;39.44
79053;BMP280;68451;49.510;6.026;2023-08-21T09:25:37;98746.13;;;39.29
79053;BMP280;68451;49.510;6.026;2023-08-21T09:28:09;98732.53;;;38.76
79053;BMP280;68451;49.510;6.026;2023-08-21T09:30:45;98729.44;;;38.56
79053;BMP280;68451;49.510;6.026;2023-08-21T09:33:11;98726.63;;;38.21
79053;BMP280;68451;49.510;6.026;2023-08-21T09:35:37;98720.59;;;37.73
79053;BMP280;68451;49.510;6.026;2023-08-21T09:38:03;98736.38;;;37.39
79053;BMP280;68451;49.510;6.026;2023-08-21T09:40:28;98718.47;;;36.83
79053;BMP280;68451;49.510;6.026;2023-08-21T09:42:55;98709.56;;;36.86
79053;BMP280;68451;49.510;6.026;2023-08-21T09:45:22;98730.84;;;37.25
79053;BMP280;68451;49.510;6.026;2023-08-21T09:47:49;98742.31;;;37.55
79053;BMP280;68451;49.510;6.026;2023-08-21T09:50:15;98739.28;;;37.67
79053;BMP280;68451;49.510;6.026;2023-08-21T09:52:42;98731.13;;;37.78
79053;BMP280;68451;49.510;6.026;2023-08-21T09:55:09;98704.66;;;37.71
79053;BMP280;68451;49.510;6.026;2023-08-21T09:57:36;98724.25;;;38.08
79053;BMP280;68451;49.510;6.026;2023-08-21T10:00:02;98705.94;;;38.05
79053;BMP280;68451;49.510;6.026;2023-08-21T10:02:42;98547.56;;;37.06
79053;BMP280;68451;49.510;6.026;2023-08-21T10:05:09;98735.22;;;38.37
79053;BMP280;68451;49.510;6.026;2023-08-21T10:07:35;98677.53;;;38.03
79053;BMP280;68451;49.510;6.026;2023-08-21T10:10:01;98716.56;;;38.78
79053;BMP280;68451;49.510;6.026;2023-08-21T10:12:27;98713.44;;;38.51
79053;BMP280;68451;49.510;6.026;2023-08-21T10:14:52;98684.81;;;37.74
79053;BMP280;68451;49.510;6.026;2023-08-21T10:17:18;98697.81;;;37.33
79053;BMP280;68451;49.510;6.026;2023-08-21T10:19:51;98709.63;;;36.93
79053;BMP280;68451;49.510;6.026;2023-08-21T10:22:54;98700.91;;;36.29
79053;BMP280;68451;49.510;6.026;2023-08-21T10:25:21;98620.81;;;35.49
79053;BMP280;68451;49.510;6.026;2023-08-21T10:27:58;98707.03;;;35.56
79053;BMP280;68451;49.510;6.026;2023-08-21T10:30:29;98605.44;;;34.48
79053;BMP280;68451;49.510;6.026;2023-08-21T10:32:58;98596.19;;;34.04
79053;BMP280;68451;49.510;6.026;2023-08-21T10:35:28;98514.75;;;33.13
79053;BMP280;68451;49.510;6.026;2023-08-21T10:40:36;98701.50;;;34.70
79053;BMP280;68451;49.510;6.026;2023-08-21T10:43:02;98595.34;;;34.00
79053;BMP280;68451;49.510;6.026;2023-08-21T10:45:29;98683.53;;;34.16
79053;BMP280;68451;49.510;6.026;2023-08-21T10:47:58;98726.38;;;33.92
79053;BMP280;68451;49.510;6.026;2023-08-21T10:50:24;98713.50;;;33.50
79053;BMP280;68451;49.510;6.026;2023-08-21T10:52:52;98694.28;;;33.05
79053;BMP280;68451;49.510;6.026;2023-08-21T10:55:18;98569.56;;;32.09
79053;BMP280;68451;49.510;6.026;2023-08-21T10:57:47;98714.25;;;32.81
79053;BMP280;68451;49.510;6.026;2023-08-21T11:00:14;98706.81;;;32.62
79053;BMP280;68451;49.510;6.026;2023-08-21T11:02:45;98707.06;;;32.57
79053;BMP280;68451;49.510;6.026;2023-08-21T11:05:12;98661.88;;;32.26
79053;BMP280;68451;49.510;6.026;2023-08-21T11:07:42;98683.50;;;32.26
79053;BMP280;68451;49.510;6.026;2023-08-21T11:10:15;98681.34;;;32.32
79053;BMP280;68451;49.510;6.026;2023-08-21T11:12:55;98718.22;;;32.87
79053;BMP280;68451;49.510;6.026;2023-08-21T11:15:21;98674.97;;;32.87
79053;BMP280;68451;49.510;6.026;2023-08-21T11:18:05;98688.63;;;33.10
79053;BMP280;68451;49.510;6.026;2023-08-21T11:20:32;98699.06;;;33.27
79053;BMP280;68451;49.510;6.026;2023-08-21T11:23:03;98648.81;;;33.10
79053;BMP280;68451;49.510;6.026;2023-08-21T11:25:33;98657.50;;;33.35
79053;BMP280;68451;49.510;6.026;2023-08-21T11:27:59;98665.41;;;33.44
79053;BMP280;68451;49.510;6.026;2023-08-21T11:30:27;98675.16;;;33.48
79053;BMP280;68451;49.510;6.026;2023-08-21T11:33:09;98695.06;;;33.56
79053;BMP280;68451;49.510;6.026;2023-08-21T11:35:35;98658.28;;;33.36
79053;BMP280;68451;49.510;6.026;2023-08-21T11:38:01;98671.75;;;33.51
79053;BMP280;68451;49.510;6.026;2023-08-21T11:40:26;98686.47;;;33.69
79053;BMP280;68451;49.510;6.026;2023-08-21T11:42:52;98656.94;;;33.64
79053;BMP280;68451;49.510;6.026;2023-08-21T11:45:20;98668.88;;;33.79
79053;BMP280;68451;49.510;6.026;2023-08-21T11:47:47;98624.81;;;33.44
79053;BMP280;68451;49.510;6.026;2023-08-21T11:50:14;98687.47;;;33.81
79053;BMP280;68451;49.510;6.026;2023-08-21T11:52:42;98668.78;;;33.76
79053;BMP280;68451;49.510;6.026;2023-08-21T11:55:08;98603.09;;;33.21
79053;BMP280;68451;49.510;6.026;2023-08-21T11:57:46;98652.88;;;33.55
79053;BMP280;68451;49.510;6.026;2023-08-21T12:00:12;98590.88;;;33.11
79053;BMP280;68451;49.510;6.026;2023-08-21T12:02:38;98638.69;;;33.23
79053;BMP280;68451;49.510;6.026;2023-08-21T12:05:05;98670.63;;;33.52
79053;BMP280;68451;49.510;6.026;2023-08-21T12:07:31;98679.16;;;33.54
79053;BMP280;68451;49.510;6.026;2023-08-21T12:09:57;98677.88;;;33.48
79053;BMP280;68451;49.510;6.026;2023-08-21T12:12:23;98683.66;;;33.47
79053;BMP280;68451;49.510;6.026;2023-08-21T12:14:49;98660.41;;;33.26
79053;BMP280;68451;49.510;6.026;2023-08-21T12:17:15;98666.53;;;33.23
79053;BMP280;68451;49.510;6.026;2023-08-21T12:19:41;98617.19;;;32.95
79053;BMP280;68451;49.510;6.026;2023-08-21T12:22:09;98650.34;;;33.08
79053;BMP280;68451;49.510;6.026;2023-08-21T12:24:35;98697.81;;;33.21
79053;BMP280;68451;49.510;6.026;2023-08-21T12:27:03;98674.94;;;33.03
79053;BMP280;68451;49.510;6.026;2023-08-21T12:29:28;98683.53;;;32.89
79053;BMP280;68451;49.510;6.026;2023-08-21T12:31:54;98702.44;;;32.73
79053;BMP280;68451;49.510;6.026;2023-08-21T12:34:20;98691.09;;;32.52
79053;BMP280;68451;49.510;6.026;2023-08-21T12:36:45;98709.13;;;32.48
79053;BMP280;68451;49.510;6.026;2023-08-21T12:39:11;98584.38;;;31.56
79053;BMP280;68451;49.510;6.026;2023-08-21T12:41:37;98706.00;;;32.30
79053;BMP280;68451;49.510;6.026;2023-08-21T12:44:02;98679.38;;;32.17
79053;BMP280;68451;49.510;6.026;2023-08-21T12:46:29;98629.34;;;31.79
79053;BMP280;68451;49.510;6.026;2023-08-21T12:48:56;98671.66;;;32.03
79053;BMP280;68451;49.510;6.026;2023-08-21T12:51:22;98590.81;;;31.39
79053;BMP280;68451;49.510;6.026;2023-08-21T12:53:47;98696.19;;;32.10
79053;BMP280;68451;49.510;6.026;2023-08-21T12:56:13;98600.69;;;31.47
79053;BMP280;68451;49.510;6.026;2023-08-21T12:58:38;98670.25;;;31.93
79053;BMP280;68451;49.510;6.026;2023-08-21T13:01:04;98561.00;;;31.20
79053;BMP280;68451;49.510;6.026;2023-08-21T13:03:31;98610.16;;;31.41
79053;BMP280;68451;49.510;6.026;2023-08-21T13:05:56;98675.16;;;31.76
79053;BMP280;68451;49.510;6.026;2023-08-21T13:08:22;98674.13;;;31.80
79053;BMP280;68451;49.510;6.026;2023-08-21T13:10:47;98579.13;;;31.35
79053;BMP280;68451;49.510;6.026;2023-08-21T13:13:13;98688.34;;;31.93
79053;BMP280;68451;49.510;6.026;2023-08-21T13:15:38;98490.66;;;30.73
79053;BMP280;68451;49.510;6.026;2023-08-21T13:18:04;98649.66;;;31.73
79053;BMP280;68451;49.510;6.026;2023-08-21T13:20:30;98695.09;;;31.99
79053;BMP280;68451;49.510;6.026;2023-08-21T13:22:55;98599.38;;;31.41
79053;BMP280;68451;49.510;6.026;2023-08-21T13:25:23;98668.47;;;31.85
79053;BMP280;68451;49.510;6.026;2023-08-21T13:27:50;98675.78;;;31.85
79053;BMP280;68451;49.510;6.026;2023-08-21T13:30:15;98693.72;;;31.77
79053;BMP280;68451;49.510;6.026;2023-08-21T13:32:42;98633.72;;;31.16
79053;BMP280;68451;49.510;6.026;2023-08-21T13:35:08;98679.53;;;31.40
79053;BMP280;68451;49.510;6.026;2023-08-21T13:37:37;98612.84;;;30.89
79053;BMP280;68451;49.510;6.026;2023-08-21T13:40:03;98662.34;;;31.33
79053;BMP280;68451;49.510;6.026;2023-08-21T13:42:43;98646.63;;;31.23
79053;BMP280;68451;49.510;6.026;2023-08-21T13:45:11;98667.94;;;31.40
79053;BMP280;68451;49.510;6.026;2023-08-21T13:47:45;98645.50;;;31.11
79053;BMP280;68451;49.510;6.026;2023-08-21T13:50:14;98660.44;;;31.33
79053;BMP280;68451;49.510;6.026;2023-08-21T13:52:42;98593.66;;;30.78
79053;BMP280;68451;49.510;6.026;2023-08-21T13:55:09;98645.41;;;31.08
79053;BMP280;68451;49.510;6.026;2023-08-21T13:57:35;98683.28;;;31.11
79053;BMP280;68451;49.510;6.026;2023-08-21T14:00:03;98654.28;;;30.96
79053;BMP280;68451;49.510;6.026;2023-08-21T14:02:39;98565.25;;;30.44
79053;BMP280;68451;49.510;6.026;2023-08-21T14:05:06;98673.97;;;31.09
79053;BMP280;68451;49.510;6.026;2023-08-21T14:07:33;98641.47;;;30.81
79053;BMP280;68451;49.510;6.026;2023-08-21T14:09:59;98667.78;;;30.96
79053;BMP280;68451;49.510;6.026;2023-08-21T14:12:25;98621.41;;;30.66